Time;durP1;ratioP1;P1;durP2;ratioP2;P2;SDS_P1;SDS_P2;PMS_P1;PMS_P2;Temp;Humidity;BMP_temperature;BMP_pressure;BME280_temperature;BME280_humidity;BME280_pressure;Samples;Min_cycle;Max_cycle;Signal;HPM_P1;HPM_P2
2022/01/19 00:01:33;;;;;;;1.60;0.90;;;6.10;99.90;;;;;;5116187;28;20346;-71
2022/01/19 00:03:59;;;;;;;1.75;1.15;;;6.30;99.90;;;;;;5115911;28;20098;-69
2022/01/19 00:06:24;;;;;;;1.33;1.15;;;6.20;99.90;;;;;;5114820;28;20492;-71
2022/01/19 00:08:51;;;;;;;2.58;1.70;;;6.20;99.90;;;;;;5115581;28;20480;-70
2022/01/19 00:11:17;;;;;;;5.15;1.77;;;6.10;99.90;;;;;;5113750;28;20057;-71
2022/01/19 00:13:43;;;;;;;2.13;1.48;;;6.20;99.90;;;;;;5115709;28;20414;-70
2022/01/19 00:16:09;;;;;;;2.35;1.85;;;6.10;99.90;;;;;;5113512;28;20050;-70
2022/01/19 00:18:35;;;;;;;2.67;1.95;;;6.10;99.90;;;;;;5113971;28;20102;-70
2022/01/19 00:21:01;;;;;;;2.25;2.03;;;6.10;99.90;;;;;;5114334;28;20024;-69
2022/01/19 00:23:26;;;;;;;2.42;2.22;;;6.00;99.90;;;;;;5112211;28;20495;-70
2022/01/19 00:25:54;;;;;;;3.92;2.15;;;6.20;99.90;;;;;;5114835;28;20118;-70
2022/01/19 00:28:21;;;;;;;2.67;2.42;;;6.30;99.90;;;;;;5113000;28;20475;-71
2022/01/19 00:30:47;;;;;;;3.05;2.10;;;6.20;99.90;;;;;;5112859;28;20025;-70
2022/01/19 00:33:13;;;;;;;4.28;2.22;;;5.90;99.90;;;;;;5113935;28;20023;-70
2022/01/19 00:35:39;;;;;;;4.05;2.15;;;6.00;99.90;;;;;;5114001;28;20073;-72
2022/01/19 00:38:09;;;;;;;5.85;1.98;;;5.90;99.90;;;;;;5112870;28;20385;-69
2022/01/19 00:40:36;;;;;;;2.60;2.25;;;6.00;99.90;;;;;;5113568;28;20038;-69
2022/01/19 00:43:02;;;;;;;3.00;2.70;;;5.90;99.90;;;;;;5112806;28;20385;-70
2022/01/19 00:45:28;;;;;;;3.53;3.22;;;6.00;99.90;;;;;;5113877;28;20027;-69
2022/01/19 00:47:54;;;;;;;3.50;2.95;;;6.00;99.90;;;;;;5114584;28;20102;-70
2022/01/19 00:50:26;;;;;;;2.88;2.58;;;6.00;99.90;;;;;;5115063;28;20024;-70
2022/01/19 00:52:52;;;;;;;;;;;6.00;99.90;;;;;;5116247;28;20069;-69
2022/01/19 00:55:20;;;;;;;5.25;2.90;;;6.00;99.90;;;;;;5115153;28;19911;-69
2022/01/19 00:57:46;;;;;;;4.35;3.38;;;5.90;99.90;;;;;;5113708;28;20035;-71
2022/01/19 01:00:17;;;;;;;4.05;3.30;;;5.90;99.90;;;;;;5113798;28;20032;-69
2022/01/19 01:02:43;;;;;;;3.67;3.35;;;5.90;99.90;;;;;;5113821;28;20080;-69
2022/01/19 01:05:09;;;;;;;4.43;2.70;;;5.90;99.90;;;;;;5113975;28;20035;-69
2022/01/19 01:07:38;;;;;;;3.20;2.90;;;5.90;99.90;;;;;;5114185;28;20034;-69
2022/01/19 01:10:15;;;;;;;4.53;2.97;;;5.90;99.90;;;;;;5113573;28;20466;-70
2022/01/19 01:12:44;;;;;;;4.55;3.40;;;6.00;99.90;;;;;;5114508;28;20051;-69
2022/01/19 01:20:36;;;;;;;3.63;2.38;;;5.80;99.90;;;;;;5114499;28;20027;-69
2022/01/19 01:23:05;;;;;;;3.67;3.35;;;5.90;99.90;;;;;;5112954;28;20233;-70
2022/01/19 01:25:31;;;;;;;2.80;2.45;;;5.90;99.90;;;;;;5113189;28;20039;-70
2022/01/19 01:27:57;;;;;;;3.30;2.70;;;6.00;99.90;;;;;;5114205;28;20028;-71
2022/01/19 01:30:23;;;;;;;2.97;2.17;;;5.90;99.90;;;;;;5113998;28;20027;-69
2022/01/19 01:32:49;;;;;;;4.15;2.30;;;6.10;99.90;;;;;;5114685;28;20076;-69
2022/01/19 01:35:14;;;;;;;1.90;1.67;;;6.00;99.90;;;;;;5114715;28;20084;-68
2022/01/19 01:37:40;;;;;;;2.90;1.83;;;5.80;99.90;;;;;;5114945;28;20525;-68
2022/01/19 01:40:09;;;;;;;2.17;1.90;;;5.80;99.90;;;;;;5114545;28;20035;-69
2022/01/19 01:42:35;;;;;;;3.78;2.10;;;5.90;99.90;;;;;;5116150;28;20016;-68
2022/01/19 01:45:02;;;;;;;1.70;1.58;;;5.90;99.90;;;;;;5118343;28;20022;-70
2022/01/19 01:47:29;;;;;;;2.20;1.70;;;5.90;99.90;;;;;;5116690;28;20028;-69
2022/01/19 01:55:14;;;;;;;2.05;1.70;;;5.90;99.90;;;;;;5117515;28;20412;-70
2022/01/19 01:57:40;;;;;;;1.90;1.60;;;6.00;99.90;;;;;;5115927;28;20032;-69
2022/01/19 02:00:08;;;;;;;2.83;1.70;;;5.80;99.90;;;;;;5115927;28;20049;-69
2022/01/19 02:02:34;;;;;;;2.10;1.75;;;5.80;99.90;;;;;;5115531;28;20399;-70
2022/01/19 02:05:00;;;;;;;2.00;1.85;;;5.80;99.90;;;;;;5115921;28;20024;-69
2022/01/19 02:07:47;;;;;;;2.05;1.63;;;5.70;99.90;;;;;;5115706;28;20036;-69
2022/01/19 02:10:32;;;;;;;9.80;2.28;;;5.90;99.90;;;;;;5119589;28;20031;-69
2022/01/19 02:16:10;;;;;;;2.22;1.98;;;5.70;99.90;;;;;;5117240;28;20129;-69
2022/01/19 02:21:39;;;;;;;3.28;1.42;;;5.70;99.90;;;;;;5117153;28;20504;-70
2022/01/19 02:24:08;;;;;;;5.60;1.50;;;5.60;99.90;;;;;;5115539;28;20047;-69
2022/01/19 02:30:01;;;;;;;2.45;1.30;;;5.60;99.90;;;;;;5116771;28;20035;-70
2022/01/19 02:40:27;;;;;;;2.53;1.63;;;5.80;99.90;;;;;;5115998;28;20076;-69
2022/01/19 02:50:39;;;;;;;1.10;0.95;;;5.50;99.90;;;;;;5115731;28;20084;-69
2022/01/19 02:53:05;;;;;;;3.35;1.85;;;5.50;99.90;;;;;;5116169;28;20024;-69
2022/01/19 02:55:32;;;;;;;3.75;1.75;;;5.50;99.90;;;;;;5114427;28;20039;-69
2022/01/19 02:58:00;;;;;;;2.85;2.17;;;5.50;99.90;;;;;;5116445;28;20024;-70
2022/01/19 03:08:50;;;;;;;7.22;3.10;;;5.60;99.90;;;;;;5115195;28;20100;-70
2022/01/19 03:11:18;;;;;;;2.45;1.20;;;5.70;99.90;;;;;;5114784;28;20074;-69
2022/01/19 03:13:46;;;;;;;2.88;1.00;;;5.50;99.90;;;;;;5114176;28;20327;-68
2022/01/19 03:16:12;;;;;;;1.55;1.20;;;5.50;99.90;;;;;;5114147;28;20032;-68
2022/01/19 03:18:38;;;;;;;2.10;1.38;;;5.60;99.90;;;;;;5115213;28;20028;-70
2022/01/19 03:21:05;;;;;;;4.18;1.40;;;5.40;99.90;;;;;;5113714;28;20030;-68
2022/01/19 03:23:31;;;;;;;3.67;1.70;;;5.40;99.90;;;;;;5113093;28;20052;-69
2022/01/19 03:25:58;;;;;;;1.83;1.45;;;5.40;99.90;;;;;;5114203;28;20031;-69
2022/01/19 03:28:24;;;;;;;4.25;1.30;;;5.40;99.90;;;;;;5114177;28;20110;-73
2022/01/19 03:30:50;;;;;;;1.48;1.38;;;5.50;99.90;;;;;;5114044;28;20035;-69
2022/01/19 03:33:17;;;;;;;2.88;1.60;;;5.60;99.90;;;;;;5114169;28;20019;-68
2022/01/19 03:35:43;;;;;;;1.30;1.13;;;5.50;99.90;;;;;;5113342;28;20031;-69
2022/01/19 03:38:10;;;;;;;1.65;1.10;;;5.30;99.90;;;;;;5115144;28;20473;-69
2022/01/19 03:40:36;;;;;;;3.00;1.35;;;5.20;99.90;;;;;;5113693;28;20114;-69
2022/01/19 03:43:05;;;;;;;2.83;1.73;;;5.30;99.90;;;;;;5116261;28;20485;-68
2022/01/19 03:45:33;;;;;;;3.70;1.70;;;5.40;99.90;;;;;;5113753;28;20024;-69
2022/01/19 03:50:34;;;;;;;1.65;1.20;;;5.50;99.90;;;;;;5114487;28;20024;-70
2022/01/19 03:53:00;;;;;;;1.80;1.60;;;5.50;99.90;;;;;;5113333;28;20028;-68
2022/01/19 03:55:26;;;;;;;1.92;1.70;;;5.60;99.90;;;;;;5113397;28;20032;-69
2022/01/19 03:57:52;;;;;;;2.17;1.23;;;5.40;99.90;;;;;;5113177;28;20060;-69
2022/01/19 04:00:19;;;;;;;2.05;1.48;;;5.30;99.90;;;;;;5114354;28;20024;-69
2022/01/19 04:02:45;;;;;;;1.65;1.40;;;5.70;99.90;;;;;;5111928;28;20024;-67
2022/01/19 04:06:01;;;;;;;4.07;1.88;;;5.90;99.90;;;;;;5114649;28;20024;-68
2022/01/19 04:07:56;;;;;;;1.48;1.38;;;5.70;99.90;;;;;;5106492;28;20043;-68
2022/01/19 04:10:22;;;;;;;2.60;2.13;;;5.60;99.90;;;;;;5113412;28;20028;-68
2022/01/19 04:12:56;;;;;;;2.38;1.77;;;5.30;99.90;;;;;;5114218;28;20046;-68
2022/01/19 04:15:24;;;;;;;2.40;1.92;;;5.20;99.90;;;;;;5114209;28;20028;-68
2022/01/19 04:17:53;;;;;;;2.88;2.10;;;5.40;99.90;;;;;;5114687;28;20040;-69
2022/01/19 04:20:22;;;;;;;4.93;2.22;;;5.30;99.90;;;;;;5115867;28;20016;-68
2022/01/19 04:22:48;;;;;;;2.90;1.98;;;5.20;99.90;;;;;;5112972;28;20339;-69
2022/01/19 04:25:14;;;;;;;2.40;2.20;;;5.10;99.90;;;;;;5114722;28;20078;-68
2022/01/19 04:27:42;;;;;;;5.18;2.47;;;5.10;99.90;;;;;;5112668;28;20028;-68
2022/01/19 04:30:11;;;;;;;2.72;2.20;;;5.20;99.90;;;;;;5115192;28;20027;-70
2022/01/19 04:35:14;;;;;;;3.85;3.50;;;5.20;99.90;;;;;;5115147;28;20023;-72
2022/01/19 05:02:27;;;;;;;4.82;3.88;;;5.00;99.90;;;;;;5113606;28;20036;-69
2022/01/19 05:10:00;;;;;;;5.85;4.38;;;5.00;99.90;;;;;;5113727;28;20388;-70
2022/01/19 05:15:10;;;;;;;5.47;4.78;;;4.90;99.90;;;;;;5114186;28;20035;-69
2022/01/19 05:17:36;;;;;;;6.30;4.15;;;4.90;99.90;;;;;;5112976;28;20024;-69
2022/01/19 05:20:07;;;;;;;6.43;4.72;;;4.90;99.90;;;;;;5113667;28;20039;-69
2022/01/19 05:22:32;;;;;;;6.68;5.80;;;4.90;99.90;;;;;;5111721;28;20480;-70
2022/01/19 05:24:58;;;;;;;9.48;4.57;;;4.80;99.90;;;;;;5112791;28;20050;-70
2022/01/19 05:27:24;;;;;;;6.70;5.38;;;4.90;99.90;;;;;;5115682;28;20020;-69
2022/01/19 05:29:50;;;;;;;6.15;5.18;;;4.80;99.90;;;;;;5115011;28;20036;-69
2022/01/19 05:32:16;;;;;;;8.35;5.95;;;4.80;99.90;;;;;;5113095;28;20031;-68
2022/01/19 05:34:42;;;;;;;8.80;5.50;;;4.80;99.90;;;;;;5112871;28;20031;-69
2022/01/19 05:37:07;;;;;;;7.53;5.78;;;4.80;99.90;;;;;;5113021;28;20027;-68
2022/01/19 05:39:33;;;;;;;10.18;6.05;;;4.80;99.90;;;;;;5112486;28;20035;-68
2022/01/19 05:41:59;;;;;;;10.10;5.05;;;4.70;99.90;;;;;;5113079;28;20024;-69
2022/01/19 05:44:25;;;;;;;9.20;5.70;;;4.80;99.90;;;;;;5111914;28;20376;-69
2022/01/19 05:46:50;;;;;;;9.13;5.78;;;4.70;99.90;;;;;;5111188;28;20126;-70
2022/01/19 05:49:16;;;;;;;10.50;5.90;;;4.70;99.90;;;;;;5111498;28;20030;-69
2022/01/19 05:51:41;;;;;;;7.22;6.00;;;4.70;99.90;;;;;;5112531;28;20491;-70
2022/01/19 05:54:07;;;;;;;10.23;6.15;;;4.60;99.90;;;;;;5112921;28;20015;-69
2022/01/19 05:56:33;;;;;;;9.32;6.20;;;4.60;99.90;;;;;;5112570;28;20040;-68
2022/01/19 05:58:59;;;;;;;8.25;5.75;;;4.50;99.90;;;;;;5112065;28;20027;-68
2022/01/19 06:01:25;;;;;;;6.53;5.20;;;4.50;99.90;;;;;;5111593;28;20035;-67
2022/01/19 06:03:51;;;;;;;10.10;6.20;;;4.50;99.90;;;;;;5112331;28;20101;-69
2022/01/19 06:06:17;;;;;;;6.55;4.75;;;4.60;99.90;;;;;;5112767;28;20040;-69
2022/01/19 06:08:58;;;;;;;12.50;6.32;;;4.60;99.90;;;;;;5112336;28;20027;-69
2022/01/19 06:11:24;;;;;;;10.03;5.73;;;4.60;99.90;;;;;;5111594;28;20020;-69
2022/01/19 06:13:50;;;;;;;11.25;5.50;;;4.50;99.90;;;;;;5110942;28;20541;-71
2022/01/19 06:16:15;;;;;;;7.38;5.68;;;4.60;99.90;;;;;;5112284;28;20028;-69
2022/01/19 06:18:42;;;;;;;10.82;6.22;;;4.50;99.90;;;;;;5113424;28;20419;-69
2022/01/19 06:21:08;;;;;;;8.10;5.60;;;4.60;99.90;;;;;;5112180;28;20024;-68
2022/01/19 06:23:36;;;;;;;7.78;5.43;;;4.70;99.90;;;;;;5112404;28;20051;-68
2022/01/19 06:26:03;;;;;;;9.48;5.45;;;4.70;99.90;;;;;;5112480;28;20053;-69
2022/01/19 06:28:28;;;;;;;9.60;5.82;;;4.70;99.90;;;;;;5115027;28;20028;-70
2022/01/19 06:30:54;;;;;;;7.50;5.57;;;4.70;99.90;;;;;;5115135;28;20491;-69
2022/01/19 06:33:19;;;;;;;14.32;6.03;;;4.70;99.90;;;;;;5114612;28;20082;-68
2022/01/19 06:35:45;;;;;;;6.55;5.53;;;4.80;99.90;;;;;;5114857;28;20501;-69
2022/01/19 06:38:11;;;;;;;12.73;6.00;;;4.60;99.90;;;;;;5117093;28;20068;-71
2022/01/19 06:40:36;;;;;;;6.57;4.95;;;4.60;99.90;;;;;;5116877;28;20027;-72
2022/01/19 06:43:03;;;;;;;11.68;5.82;;;4.80;99.90;;;;;;5117411;28;20027;-70
2022/01/19 06:45:28;;;;;;;9.00;5.18;;;4.60;99.90;;;;;;5118181;28;20032;-70
2022/01/19 06:47:54;;;;;;;10.68;5.35;;;4.50;99.90;;;;;;5118103;28;20135;-69
2022/01/19 06:50:21;;;;;;;8.40;5.60;;;4.40;99.90;;;;;;5115701;28;20027;-68
2022/01/19 06:52:47;;;;;;;10.70;6.50;;;4.40;99.90;;;;;;5114565;28;20039;-69
2022/01/19 06:55:14;;;;;;;9.70;5.68;;;4.50;99.90;;;;;;5115947;28;20028;-69
2022/01/19 06:57:39;;;;;;;10.57;5.70;;;4.50;99.90;;;;;;5116784;28;20066;-70
2022/01/19 07:00:06;;;;;;;10.60;6.43;;;4.50;99.90;;;;;;5117155;28;20024;-73
2022/01/19 07:02:32;;;;;;;9.93;5.90;;;4.40;99.90;;;;;;5115542;28;20088;-69
2022/01/19 07:04:57;;;;;;;10.57;5.85;;;4.40;99.90;;;;;;5116127;28;20032;-69
2022/01/19 07:07:24;;;;;;;7.40;5.80;;;4.40;99.90;;;;;;5118790;28;20066;-70
2022/01/19 07:09:50;;;;;;;11.85;6.88;;;4.30;99.90;;;;;;5116592;28;20031;-69
2022/01/19 07:12:16;;;;;;;11.68;6.38;;;4.30;99.90;;;;;;5116367;28;20380;-68
2022/01/19 07:14:42;;;;;;;11.80;5.70;;;4.40;99.90;;;;;;5115886;28;20034;-70
2022/01/19 07:17:08;;;;;;;13.40;5.65;;;4.40;99.90;;;;;;5114511;28;20405;-70
2022/01/19 07:19:34;;;;;;;10.55;6.68;;;4.40;99.90;;;;;;5114468;28;20057;-69
2022/01/19 07:21:59;;;;;;;8.95;5.70;;;4.40;99.90;;;;;;5113788;28;20123;-68
2022/01/19 07:24:25;;;;;;;9.27;5.63;;;4.30;99.90;;;;;;5115042;28;20477;-70
2022/01/19 07:26:51;;;;;;;9.65;6.25;;;4.30;99.90;;;;;;5113649;28;20036;-69
2022/01/19 07:29:17;;;;;;;8.65;6.38;;;4.40;99.90;;;;;;5114449;28;20024;-69
2022/01/19 07:31:43;;;;;;;10.88;6.30;;;4.30;99.90;;;;;;5115591;28;20032;-70
2022/01/19 07:34:09;;;;;;;8.48;6.95;;;4.30;99.90;;;;;;5117545;28;20016;-74
2022/01/19 07:36:36;;;;;;;12.82;7.03;;;4.20;99.90;;;;;;5117036;28;20032;-69
2022/01/19 07:39:01;;;;;;;12.88;6.70;;;4.40;99.90;;;;;;5115146;28;20046;-69
2022/01/19 07:41:27;;;;;;;7.53;6.13;;;4.20;99.90;;;;;;5114366;28;20031;-69
2022/01/19 07:43:53;;;;;;;10.65;7.07;;;4.10;99.90;;;;;;5114701;28;20393;-69
2022/01/19 07:46:19;;;;;;;15.07;7.22;;;4.10;99.90;;;;;;5113423;28;20035;-69
2022/01/19 07:48:45;;;;;;;12.00;7.10;;;4.00;99.90;;;;;;5112840;28;20024;-70
2022/01/19 07:51:11;;;;;;;12.13;6.88;;;4.20;99.90;;;;;;5113594;28;20080;-69
2022/01/19 07:53:37;;;;;;;9.27;6.28;;;4.80;99.90;;;;;;5113219;28;20063;-68
2022/01/19 07:56:04;;;;;;;8.60;5.88;;;5.10;99.90;;;;;;5112595;28;20039;-69
2022/01/19 07:58:30;;;;;;;10.95;6.32;;;5.30;99.90;;;;;;5113427;28;20431;-73
2022/01/19 08:00:55;;;;;;;12.25;6.82;;;5.60;99.90;;;;;;5114097;28;20057;-68
2022/01/19 08:03:21;;;;;;;12.98;6.07;;;6.00;99.90;;;;;;5113238;28;20055;-69
2022/01/19 08:05:47;;;;;;;7.93;5.75;;;6.40;99.90;;;;;;5113974;28;20034;-70
2022/01/19 08:08:13;;;;;;;10.05;6.88;;;7.00;99.90;;;;;;5114104;28;20030;-70
2022/01/19 08:10:42;;;;;;;9.88;5.85;;;7.10;99.90;;;;;;5112971;28;20038;-70
2022/01/19 08:13:08;;;;;;;7.55;5.30;;;7.80;99.90;;;;;;5114271;28;20114;-70
2022/01/19 08:15:34;;;;;;;11.23;5.78;;;8.20;99.90;;;;;;5114163;28;20031;-70
2022/01/19 08:18:00;;;;;;;12.13;5.38;;;8.90;99.90;;;;;;5111967;28;20039;-68
2022/01/19 08:20:25;;;;;;;6.95;5.38;;;9.40;99.90;;;;;;5114622;28;20031;-70
2022/01/19 08:22:51;;;;;;;6.60;4.93;;;9.10;99.90;;;;;;5112050;28;20130;-71
2022/01/19 08:25:17;;;;;;;9.25;5.30;;;9.50;99.90;;;;;;5114045;28;20437;-71
2022/01/19 08:27:43;;;;;;;11.20;5.90;;;9.90;99.90;;;;;;5114093;28;20031;-74
2022/01/19 08:30:11;;;;;;;11.75;6.07;;;9.60;99.90;;;;;;5115163;28;20028;-69
2022/01/19 08:32:36;;;;;;;12.20;4.85;;;10.60;99.90;;;;;;5113344;28;20494;-71
2022/01/19 08:35:04;;;;;;;10.13;6.15;;;10.50;99.90;;;;;;5112873;28;20028;-71
2022/01/19 08:37:29;;;;;;;8.75;5.57;;;10.70;99.90;;;;;;5114378;28;20032;-70
2022/01/19 08:39:55;;;;;;;9.93;5.60;;;10.70;97.60;;;;;;5113786;28;20024;-71
2022/01/19 08:42:21;;;;;;;9.23;5.57;;;10.70;97.90;;;;;;5114040;28;20443;-71
2022/01/19 08:44:47;;;;;;;8.07;6.20;;;10.80;97.50;;;;;;5114844;28;20429;-71
2022/01/19 08:47:12;;;;;;;9.63;5.63;;;11.20;96.20;;;;;;5116058;28;20059;-71
2022/01/19 08:49:38;;;;;;;8.52;5.78;;;11.20;96.60;;;;;;5112969;28;20024;-71
2022/01/19 08:52:04;;;;;;;7.22;5.57;;;11.00;96.30;;;;;;5112352;28;20070;-71
2022/01/19 08:54:30;;;;;;;6.95;4.85;;;10.50;98.10;;;;;;5112188;28;20069;-69
2022/01/19 08:56:57;;;;;;;9.13;5.53;;;10.80;97.90;;;;;;5113483;28;20093;-71
2022/01/19 08:59:23;;;;;;;7.18;5.43;;;11.00;97.10;;;;;;5115280;28;20042;-71
2022/01/19 09:01:49;;;;;;;10.30;5.28;;;10.70;97.90;;;;;;5118713;27;20028;-74
2022/01/19 09:04:15;;;;;;;8.40;5.85;;;10.40;97.60;;;;;;5122913;27;20491;-70
2022/01/19 09:06:40;;;;;;;7.68;5.07;;;10.60;97.40;;;;;;5122086;27;20030;-71
2022/01/19 09:09:06;;;;;;;8.27;5.43;;;11.00;96.70;;;;;;5116102;27;20078;-71
2022/01/19 09:11:31;;;;;;;8.50;5.85;;;11.30;96.30;;;;;;5122928;27;20030;-70
2022/01/19 09:13:58;;;;;;;11.30;5.70;;;10.50;97.40;;;;;;5123665;27;20118;-70
2022/01/19 09:16:24;;;;;;;10.45;5.25;;;10.50;97.60;;;;;;5129009;27;20092;-76
2022/01/19 09:18:49;;;;;;;6.93;5.55;;;10.90;98.70;;;;;;5118993;28;20476;-70
2022/01/19 09:21:15;;;;;;;11.75;5.90;;;10.80;97.00;;;;;;5113769;28;20066;-68
2022/01/19 09:23:41;;;;;;;9.88;6.03;;;10.80;97.80;;;;;;5113114;28;20062;-70
2022/01/19 09:26:06;;;;;;;12.90;5.80;;;10.00;98.80;;;;;;5120529;28;20027;-69
2022/01/19 09:28:32;;;;;;;8.63;5.55;;;10.30;98.60;;;;;;5121369;28;20027;-68
2022/01/19 09:31:00;;;;;;;11.00;5.78;;;10.00;98.10;;;;;;5123040;28;20111;-69
2022/01/19 09:33:29;;;;;;;9.77;6.07;;;10.20;98.50;;;;;;5123331;27;20107;-70
2022/01/19 09:38:36;;;;;;;13.00;6.03;;;10.20;98.00;;;;;;5116095;28;20067;-70
2022/01/19 09:41:06;;;;;;;12.73;5.93;;;10.40;98.10;;;;;;5115757;28;20030;-68
2022/01/19 09:43:32;;;;;;;7.03;5.60;;;10.40;98.40;;;;;;5117627;28;20623;-69
2022/01/19 09:46:00;;;;;;;10.07;5.40;;;10.40;97.70;;;;;;5112678;28;20027;-71
2022/01/19 09:48:26;;;;;;;9.25;6.28;;;10.50;97.90;;;;;;5113177;28;20027;-70
2022/01/19 09:50:54;;;;;;;9.25;6.20;;;10.00;97.70;;;;;;5118254;28;20388;-70
2022/01/19 09:53:20;;;;;;;10.80;6.10;;;9.50;98.90;;;;;;5119017;28;20393;-71
2022/01/19 09:55:47;;;;;;;9.10;6.63;;;9.00;99.90;;;;;;5125031;28;20035;-73
2022/01/19 09:58:13;;;;;;;10.05;6.50;;;9.30;99.80;;;;;;5117478;27;20115;-68
2022/01/19 10:00:39;;;;;;;12.10;5.80;;;9.80;99.10;;;;;;5113540;28;20384;-70
2022/01/19 10:03:15;;;;;;;13.23;6.88;;;10.20;98.20;;;;;;5115721;28;20388;-70
2022/01/19 10:05:58;;;;;;;11.02;7.03;;;10.40;97.50;;;;;;5118667;27;20062;-70
2022/01/19 10:08:26;;;;;;;10.32;7.05;;;10.40;97.40;;;;;;5125474;27;20425;-71
2022/01/19 10:11:20;;;;;;;10.35;6.07;;;10.50;97.40;;;;;;5129355;27;20036;-68
2022/01/19 10:17:04;;;;;;;14.88;6.30;;;11.00;95.50;;;;;;5124005;27;20033;-69
2022/01/19 10:19:34;;;;;;;10.15;7.32;;;10.00;97.60;;;;;;5119814;27;20037;-69
2022/01/19 10:22:20;;;;;;;7.55;6.15;;;10.00;97.80;;;;;;5124121;27;20076;-68
2022/01/19 10:24:56;;;;;;;15.27;7.03;;;10.10;97.30;;;;;;5134681;27;20074;-69
2022/01/19 10:27:45;;;;;;;12.40;7.53;;;9.60;98.40;;;;;;5127117;27;20463;-73
2022/01/19 10:30:24;;;;;;;8.60;7.13;;;9.50;98.80;;;;;;5126337;27;20031;-69
2022/01/19 10:32:55;;;;;;;10.57;6.72;;;9.30;99.40;;;;;;5128643;27;20059;-68
2022/01/19 10:35:23;;;;;;;;;;;9.60;99.00;;;;;;5134675;27;20034;-70
2022/01/19 10:38:08;;;;;;;10.38;7.35;;;9.90;98.70;;;;;;5124095;27;19911;-70
2022/01/19 10:40:35;;;;;;;11.25;7.15;;;10.30;97.60;;;;;;5137218;27;20023;-70
2022/01/19 10:43:27;;;;;;;11.85;7.53;;;9.50;98.60;;;;;;5129526;27;20111;-69
2022/01/19 10:45:55;;;;;;;11.52;8.50;;;9.10;99.60;;;;;;5127038;27;20033;-69
2022/01/19 10:48:34;;;;;;;14.20;8.48;;;8.70;99.90;;;;;;5123665;27;20019;-71
2022/01/19 10:51:29;;;;;;;14.45;9.38;;;8.30;99.90;;;;;;5119470;27;20107;-69
2022/01/19 10:54:19;;;;;;;12.88;8.57;;;7.70;99.90;;;;;;5118712;27;20133;-69
2022/01/19 10:56:48;;;;;;;17.02;9.73;;;7.50;99.90;;;;;;5133358;27;20055;-70
2022/01/19 10:59:18;;;;;;;12.15;7.85;;;6.90;99.90;;;;;;5133789;27;20376;-70
2022/01/19 11:01:51;;;;;;;13.98;8.30;;;7.00;99.90;;;;;;5122139;27;20029;-70
2022/01/19 11:04:20;;;;;;;19.95;10.27;;;6.90;99.90;;;;;;5118158;27;20031;-71
2022/01/19 11:06:53;;;;;;;14.40;8.50;;;6.60;99.90;;;;;;5128349;27;20088;-71
2022/01/19 11:09:24;;;;;;;15.02;7.95;;;6.50;99.90;;;;;;5133015;27;20019;-71
2022/01/19 11:11:52;;;;;;;15.00;8.32;;;6.40;99.90;;;;;;5114368;27;20108;-71
2022/01/19 11:14:18;;;;;;;16.95;9.70;;;6.40;99.90;;;;;;5126517;27;20023;-70
2022/01/19 11:16:44;;;;;;;11.93;8.77;;;6.10;99.90;;;;;;5119216;27;20031;-70
2022/01/19 11:19:11;;;;;;;15.35;10.30;;;5.90;99.90;;;;;;5126018;27;20063;-71
2022/01/19 11:21:50;;;;;;;13.88;9.43;;;5.90;99.90;;;;;;5135187;27;20084;-70
2022/01/19 11:24:55;;;;;;;18.83;9.95;;;5.60;99.90;;;;;;5135961;27;20081;-73
2022/01/19 11:27:22;;;;;;;16.27;8.95;;;5.40;99.90;;;;;;5099819;27;20122;-74
2022/01/19 11:30:27;;;;;;;16.63;9.50;;;5.50;99.90;;;;;;5117106;27;20038;-75
2022/01/19 11:33:14;;;;;;;17.90;8.38;;;5.50;99.90;;;;;;5046224;28;20049;-75
2022/01/19 11:35:44;;;;;;;20.20;10.45;;;5.40;99.90;;;;;;5050067;28;20046;-72
2022/01/19 11:38:44;;;;;;;19.08;9.38;;;5.40;99.90;;;;;;5016918;28;20415;-75
2022/01/19 11:41:10;;;;;;;14.40;9.48;;;5.40;99.90;;;;;;5039197;28;20108;-72
2022/01/19 11:43:38;;;;;;;14.68;9.05;;;5.40;99.90;;;;;;5038684;28;20052;-73
2022/01/19 11:46:26;;;;;;;16.17;10.50;;;5.30;99.90;;;;;;5029692;28;20040;-75
2022/01/19 11:48:51;;;;;;;23.27;10.65;;;5.20;99.90;;;;;;5041301;28;20147;-77
2022/01/19 11:51:24;;;;;;;17.75;9.73;;;5.30;99.90;;;;;;5026028;28;20586;-73
2022/01/19 11:54:03;;;;;;;15.75;10.02;;;5.30;99.90;;;;;;5011612;28;20033;-74
2022/01/19 11:56:29;;;;;;;16.45;10.35;;;5.10;99.90;;;;;;5028621;28;20053;-73
2022/01/19 11:59:09;;;;;;;21.00;10.48;;;5.10;99.90;;;;;;5011333;28;20030;-73
2022/01/19 12:01:37;;;;;;;16.63;10.48;;;4.90;99.90;;;;;;5028718;28;20399;-74
2022/01/19 12:04:20;;;;;;;16.77;9.40;;;4.90;99.90;;;;;;5017527;28;20037;-70
2022/01/19 12:06:47;;;;;;;17.85;11.43;;;4.80;99.90;;;;;;5033734;28;20044;-73
2022/01/19 12:09:13;;;;;;;18.10;11.75;;;4.90;99.90;;;;;;5030640;28;20564;-70
2022/01/19 12:11:52;;;;;;;19.40;10.93;;;5.00;99.90;;;;;;5114345;28;20483;-71
2022/01/19 12:14:22;;;;;;;19.35;11.50;;;4.90;99.90;;;;;;5115317;28;20035;-71
2022/01/19 12:17:06;;;;;;;20.50;11.40;;;4.90;99.90;;;;;;5115343;28;20028;-72
2022/01/19 12:19:40;;;;;;;18.45;12.00;;;4.80;99.90;;;;;;5115748;28;20068;-76
2022/01/19 12:22:26;;;;;;;18.75;11.70;;;4.70;99.90;;;;;;5114338;28;20031;-77
2022/01/19 12:25:02;;;;;;;21.35;12.52;;;4.90;99.90;;;;;;5116010;28;20032;-74
2022/01/19 12:27:34;;;;;;;21.08;12.15;;;4.90;99.90;;;;;;5118030;27;20027;-72
2022/01/19 12:30:13;;;;;;;19.83;11.90;;;4.80;99.90;;;;;;5113718;28;20027;-74
2022/01/19 12:32:45;;;;;;;19.38;12.20;;;4.70;99.90;;;;;;5124100;27;20031;-73
2022/01/19 12:35:37;;;;;;;20.33;12.10;;;4.80;99.90;;;;;;5124944;27;20113;-72
2022/01/19 12:38:07;;;;;;;23.02;12.30;;;5.30;99.90;;;;;;5122031;27;20031;-74
2022/01/19 12:40:40;;;;;;;21.65;12.07;;;5.70;99.90;;;;;;5116032;27;20081;-73
2022/01/19 12:43:12;;;;;;;20.67;13.02;;;5.80;99.90;;;;;;5113827;28;20027;-74
2022/01/19 12:45:51;;;;;;;22.63;13.43;;;5.90;99.90;;;;;;5113746;28;20115;-72
2022/01/19 12:48:37;;;;;;;22.02;13.10;;;5.60;99.90;;;;;;5113403;28;20559;-76
2022/01/19 12:51:03;;;;;;;24.08;14.45;;;5.40;99.90;;;;;;5129022;27;20089;-75
2022/01/19 12:53:29;;;;;;;25.67;14.77;;;5.20;99.90;;;;;;5113940;28;20023;-71
2022/01/19 12:56:09;;;;;;;23.67;14.80;;;5.30;99.90;;;;;;5116745;27;20042;-74
2022/01/19 12:58:37;;;;;;;26.02;13.77;;;5.10;99.90;;;;;;5139239;27;20086;-76
2022/01/19 13:01:08;;;;;;;28.23;14.55;;;5.10;99.90;;;;;;5137675;27;20023;-74
2022/01/19 13:03:42;;;;;;;25.70;15.68;;;5.10;99.90;;;;;;5136076;27;20023;-72
2022/01/19 13:06:11;;;;;;;27.92;14.63;;;5.10;99.90;;;;;;5134814;27;20365;-73
2022/01/19 13:08:37;;;;;;;24.83;15.00;;;5.10;99.90;;;;;;5136382;27;20049;-76
2022/01/19 13:11:25;;;;;;;22.00;12.95;;;4.80;99.90;;;;;;5135848;27;20456;-70
2022/01/19 13:13:56;;;;;;;26.80;13.70;;;4.80;99.90;;;;;;5130756;27;20027;-70
2022/01/19 13:16:39;;;;;;;24.35;14.32;;;4.70;99.90;;;;;;5124594;27;20039;-69
2022/01/19 13:19:11;;;;;;;27.60;13.75;;;4.80;99.90;;;;;;5112685;28;20023;-69
2022/01/19 13:21:37;;;;;;;;;;;4.80;99.90;;;;;;5114962;28;20402;-75
2022/01/19 13:24:14;;;;;;;22.20;12.32;;;5.30;99.90;;;;;;5117685;28;19946;-73
2022/01/19 13:26:44;;;;;;;21.50;13.38;;;5.60;99.90;;;;;;5119280;28;20034;-72
2022/01/19 13:29:24;;;;;;;22.48;14.25;;;5.80;99.90;;;;;;5137116;28;20019;-78
2022/01/19 13:31:58;;;;;;;21.10;11.82;;;5.60;99.90;;;;;;5138113;27;20024;-78
2022/01/19 13:34:24;;;;;;;21.52;12.73;;;5.30;99.90;;;;;;5123517;28;20022;-77
2022/01/19 13:36:57;;;;;;;20.20;11.88;;;5.20;99.90;;;;;;5119852;28;20107;-78
2022/01/19 13:39:23;;;;;;;21.10;12.05;;;5.10;99.90;;;;;;5120365;27;20269;-74
2022/01/19 13:41:52;;;;;;;22.05;11.43;;;5.00;99.90;;;;;;5129666;27;20076;-77
2022/01/19 13:44:22;;;;;;;20.95;11.60;;;4.90;99.90;;;;;;5121742;28;20298;-79
2022/01/19 13:46:48;;;;;;;21.27;11.80;;;4.90;99.90;;;;;;5120946;28;20449;-75
2022/01/19 13:49:14;;;;;;;20.83;12.40;;;4.80;99.90;;;;;;5126703;27;20038;-78
2022/01/19 13:51:43;;;;;;;18.42;11.88;;;4.60;99.90;;;;;;5128887;27;20026;-72
2022/01/19 13:54:09;;;;;;;21.05;11.75;;;4.60;99.90;;;;;;5124358;27;20038;-72
2022/01/19 13:56:39;;;;;;;21.13;12.05;;;4.60;99.90;;;;;;5124358;27;20031;-74
2022/01/19 13:59:18;;;;;;;16.95;9.93;;;4.70;99.90;;;;;;5126209;27;20338;-79
2022/01/19 14:02:02;;;;;;;24.13;11.85;;;4.70;99.90;;;;;;5129450;27;20027;-75
2022/01/19 14:04:34;;;;;;;16.80;10.27;;;4.70;99.90;;;;;;5140232;27;20480;-77
2022/01/19 14:07:17;;;;;;;20.63;11.30;;;4.60;99.90;;;;;;5129390;27;20127;-77
2022/01/19 14:09:46;;;;;;;20.05;10.80;;;4.50;99.90;;;;;;5131887;27;20023;-75
2022/01/19 14:12:16;;;;;;;17.55;10.52;;;4.50;99.90;;;;;;5123042;27;20012;-79
2022/01/19 14:14:55;;;;;;;18.55;10.40;;;4.60;99.90;;;;;;5135215;27;20033;-78
2022/01/19 14:17:39;;;;;;;20.98;11.05;;;4.50;99.90;;;;;;5121078;28;20049;-79
2022/01/19 14:20:15;;;;;;;23.80;12.45;;;4.50;99.90;;;;;;5121885;27;20076;-72
2022/01/19 14:22:40;;;;;;;18.40;10.88;;;4.50;99.90;;;;;;5127977;27;20529;-80
2022/01/19 14:25:15;;;;;;;18.63;11.13;;;4.50;99.90;;;;;;5125267;27;20031;-73
2022/01/19 14:27:47;;;;;;;20.52;11.15;;;4.50;99.90;;;;;;5118162;28;20075;-74
2022/01/19 14:30:23;;;;;;;18.83;12.30;;;4.50;99.90;;;;;;5124400;27;20072;-73